sensor_id;sensor_type;location;lat;lon;timestamp;P1;durP1;ratioP1;P2;durP2;ratioP2
2728;SDS011;1372;47.956;7.830;2022-12-20T00:00:14;2.33;;;1.20;;
2728;SDS011;1372;47.956;7.830;2022-12-20T00:02:44;1.27;;;1.17;;
2728;SDS011;1372;47.956;7.830;2022-12-20T00:05:13;1.00;;;1.00;;
2728;SDS011;1372;47.956;7.830;2022-12-20T00:07:41;1.10;;;1.00;;
2728;SDS011;1372;47.956;7.830;2022-12-20T00:10:12;1.10;;;0.97;;
2728;SDS011;1372;47.956;7.830;2022-12-20T00:12:41;1.30;;;1.20;;
2728;SDS011;1372;47.956;7.830;2022-12-20T00:15:09;1.10;;;1.00;;
2728;SDS011;1372;47.956;7.830;2022-12-20T00:17:41;1.47;;;1.37;;
2728;SDS011;1372;47.956;7.830;2022-12-20T00:20:10;1.43;;;0.90;;
2728;SDS011;1372;47.956;7.830;2022-12-20T00:22:42;1.03;;;0.93;;
2728;SDS011;1372;47.956;7.830;2022-12-20T00:25:11;1.17;;;1.13;;
2728;SDS011;1372;47.956;7.830;2022-12-20T00:27:39;2.30;;;1.13;;
2728;SDS011;1372;47.956;7.830;2022-12-20T00:30:08;1.40;;;0.97;;
2728;SDS011;1372;47.956;7.830;2022-12-20T00:32:38;1.60;;;1.27;;
2728;SDS011;1372;47.956;7.830;2022-12-20T00:35:08;1.10;;;1.10;;
2728;SDS011;1372;47.956;7.830;2022-12-20T00:37:39;1.47;;;1.37;;
2728;SDS011;1372;47.956;7.830;2022-12-20T00:40:08;1.83;;;1.07;;
2728;SDS011;1372;47.956;7.830;2022-12-20T00:42:37;2.03;;;0.90;;
2728;SDS011;1372;47.956;7.830;2022-12-20T00:45:06;1.10;;;1.10;;
2728;SDS011;1372;47.956;7.830;2022-12-20T00:47:35;1.10;;;1.00;;
2728;SDS011;1372;47.956;7.830;2022-12-20T00:50:04;2.20;;;1.20;;
2728;SDS011;1372;47.956;7.830;2022-12-20T00:52:35;1.60;;;1.50;;
2728;SDS011;1372;47.956;7.830;2022-12-20T00:55:04;0.80;;;0.77;;
2728;SDS011;1372;47.956;7.830;2022-12-20T00:57:33;1.77;;;0.90;;
2728;SDS011;1372;47.956;7.830;2022-12-20T01:00:02;1.47;;;1.30;;
2728;SDS011;1372;47.956;7.830;2022-12-20T01:02:32;1.10;;;1.00;;
2728;SDS011;1372;47.956;7.830;2022-12-20T01:05:01;1.17;;;1.07;;
2728;SDS011;1372;47.956;7.830;2022-12-20T01:07:31;0.90;;;0.90;;
2728;SDS011;1372;47.956;7.830;2022-12-20T01:10:01;1.60;;;1.10;;
2728;SDS011;1372;47.956;7.830;2022-12-20T01:12:30;1.20;;;1.10;;
2728;SDS011;1372;47.956;7.830;2022-12-20T01:14:58;0.73;;;0.73;;
2728;SDS011;1372;47.956;7.830;2022-12-20T01:17:27;1.13;;;1.00;;
2728;SDS011;1372;47.956;7.830;2022-12-20T01:19:56;1.33;;;1.20;;
2728;SDS011;1372;47.956;7.830;2022-12-20T01:22:24;1.07;;;0.80;;
2728;SDS011;1372;47.956;7.830;2022-12-20T01:24:53;1.10;;;1.00;;
2728;SDS011;1372;47.956;7.830;2022-12-20T01:27:23;1.00;;;1.00;;
2728;SDS011;1372;47.956;7.830;2022-12-20T01:29:54;1.07;;;0.97;;
2728;SDS011;1372;47.956;7.830;2022-12-20T01:32:22;0.93;;;0.93;;
2728;SDS011;1372;47.956;7.830;2022-12-20T01:34:54;2.40;;;1.20;;
2728;SDS011;1372;47.956;7.830;2022-12-20T01:37:31;0.83;;;0.80;;
2728;SDS011;1372;47.956;7.830;2022-12-20T01:40:02;0.90;;;0.90;;
2728;SDS011;1372;47.956;7.830;2022-12-20T01:42:35;5.20;;;1.30;;
2728;SDS011;1372;47.956;7.830;2022-12-20T01:45:07;1.13;;;0.80;;
2728;SDS011;1372;47.956;7.830;2022-12-20T01:47:42;0.97;;;0.93;;
2728;SDS011;1372;47.956;7.830;2022-12-20T01:50:11;0.87;;;0.87;;
2728;SDS011;1372;47.956;7.830;2022-12-20T01:52:41;0.73;;;0.73;;
2728;SDS011;1372;47.956;7.830;2022-12-20T01:55:14;1.13;;;1.13;;
2728;SDS011;1372;47.956;7.830;2022-12-20T01:57:49;1.60;;;0.87;;
2728;SDS011;1372;47.956;7.830;2022-12-20T02:00:21;1.27;;;0.67;;
2728;SDS011;1372;47.956;7.830;2022-12-20T02:02:52;1.00;;;0.90;;
2728;SDS011;1372;47.956;7.830;2022-12-20T02:05:23;0.93;;;0.90;;
2728;SDS011;1372;47.956;7.830;2022-12-20T02:07:52;0.70;;;0.70;;
2728;SDS011;1372;47.956;7.830;2022-12-20T02:10:23;0.80;;;0.80;;
2728;SDS011;1372;47.956;7.830;2022-12-20T02:13:04;1.00;;;1.00;;
2728;SDS011;1372;47.956;7.830;2022-12-20T02:15:41;1.77;;;0.80;;
2728;SDS011;1372;47.956;7.830;2022-12-20T02:18:18;1.50;;;1.20;;
2728;SDS011;1372;47.956;7.830;2022-12-20T02:21:01;1.00;;;1.00;;
2728;SDS011;1372;47.956;7.830;2022-12-20T02:23:44;0.63;;;0.63;;
2728;SDS011;1372;47.956;7.830;2022-12-20T02:30:10;0.80;;;0.80;;
2728;SDS011;1372;47.956;7.830;2022-12-20T02:32:47;0.90;;;0.90;;
2728;SDS011;1372;47.956;7.830;2022-12-20T02:35:24;0.83;;;0.80;;
2728;SDS011;1372;47.956;7.830;2022-12-20T02:37:57;1.80;;;0.97;;
2728;SDS011;1372;47.956;7.830;2022-12-20T02:40:36;0.70;;;0.70;;
2728;SDS011;1372;47.956;7.830;2022-12-20T02:43:07;1.00;;;0.90;;
2728;SDS011;1372;47.956;7.830;2022-12-20T02:46:00;1.13;;;0.80;;
2728;SDS011;1372;47.956;7.830;2022-12-20T02:48:29;1.07;;;0.80;;
2728;SDS011;1372;47.956;7.830;2022-12-20T02:51:00;2.30;;;1.00;;
2728;SDS011;1372;47.956;7.830;2022-12-20T02:53:30;1.20;;;0.60;;
2728;SDS011;1372;47.956;7.830;2022-12-20T02:56:00;0.87;;;0.70;;
2728;SDS011;1372;47.956;7.830;2022-12-20T02:58:35;1.07;;;1.00;;
2728;SDS011;1372;47.956;7.830;2022-12-20T03:01:12;0.53;;;0.53;;
2728;SDS011;1372;47.956;7.830;2022-12-20T03:03:48;0.87;;;0.87;;
2728;SDS011;1372;47.956;7.830;2022-12-20T03:06:18;2.90;;;0.77;;
2728;SDS011;1372;47.956;7.830;2022-12-20T03:08:47;0.60;;;0.60;;
2728;SDS011;1372;47.956;7.830;2022-12-20T03:11:16;1.00;;;0.80;;
2728;SDS011;1372;47.956;7.830;2022-12-20T03:13:45;3.17;;;1.10;;
2728;SDS011;1372;47.956;7.830;2022-12-20T03:16:15;1.23;;;1.13;;
2728;SDS011;1372;47.956;7.830;2022-12-20T03:18:44;0.80;;;0.50;;
2728;SDS011;1372;47.956;7.830;2022-12-20T03:21:15;0.80;;;0.80;;
2728;SDS011;1372;47.956;7.830;2022-12-20T03:23:47;0.80;;;0.80;;
2728;SDS011;1372;47.956;7.830;2022-12-20T03:26:15;0.60;;;0.60;;
2728;SDS011;1372;47.956;7.830;2022-12-20T03:28:44;0.80;;;0.80;;
2728;SDS011;1372;47.956;7.830;2022-12-20T03:31:12;0.60;;;0.60;;
2728;SDS011;1372;47.956;7.830;2022-12-20T03:33:42;1.23;;;0.70;;
2728;SDS011;1372;47.956;7.830;2022-12-20T03:36:11;1.37;;;0.87;;
2728;SDS011;1372;47.956;7.830;2022-12-20T03:38:39;0.73;;;0.73;;
2728;SDS011;1372;47.956;7.830;2022-12-20T03:41:10;0.73;;;0.73;;
2728;SDS011;1372;47.956;7.830;2022-12-20T03:43:41;1.60;;;0.77;;
2728;SDS011;1372;47.956;7.830;2022-12-20T03:46:10;0.63;;;0.63;;
2728;SDS011;1372;47.956;7.830;2022-12-20T03:48:44;0.80;;;0.80;;
2728;SDS011;1372;47.956;7.830;2022-12-20T03:51:13;0.70;;;0.70;;
2728;SDS011;1372;47.956;7.830;2022-12-20T03:53:41;1.30;;;0.73;;
2728;SDS011;1372;47.956;7.830;2022-12-20T03:56:10;1.13;;;0.70;;
2728;SDS011;1372;47.956;7.830;2022-12-20T03:58:38;1.07;;;0.80;;
2728;SDS011;1372;47.956;7.830;2022-12-20T04:01:20;0.60;;;0.60;;
2728;SDS011;1372;47.956;7.830;2022-12-20T04:03:53;0.90;;;0.90;;
2728;SDS011;1372;47.956;7.830;2022-12-20T04:06:25;0.50;;;0.50;;
2728;SDS011;1372;47.956;7.830;2022-12-20T04:08:54;0.80;;;0.80;;
2728;SDS011;1372;47.956;7.830;2022-12-20T04:11:30;0.97;;;0.70;;
2728;SDS011;1372;47.956;7.830;2022-12-20T04:13:59;1.00;;;0.93;;
2728;SDS011;1372;47.956;7.830;2022-12-20T04:16:28;1.10;;;0.70;;
2728;SDS011;1372;47.956;7.830;2022-12-20T04:19:00;1.60;;;0.70;;
2728;SDS011;1372;47.956;7.830;2022-12-20T04:21:33;0.87;;;0.87;;
2728;SDS011;1372;47.956;7.830;2022-12-20T04:24:02;0.90;;;0.90;;
2728;SDS011;1372;47.956;7.830;2022-12-20T04:26:33;1.47;;;1.00;;
2728;SDS011;1372;47.956;7.830;2022-12-20T04:29:01;1.10;;;1.10;;
2728;SDS011;1372;47.956;7.830;2022-12-20T04:31:30;0.90;;;0.83;;
2728;SDS011;1372;47.956;7.830;2022-12-20T04:34:02;1.10;;;1.00;;
2728;SDS011;1372;47.956;7.830;2022-12-20T04:36:33;0.87;;;0.87;;
2728;SDS011;1372;47.956;7.830;2022-12-20T04:39:06;0.90;;;0.87;;
2728;SDS011;1372;47.956;7.830;2022-12-20T04:41:35;2.10;;;0.90;;
2728;SDS011;1372;47.956;7.830;2022-12-20T04:44:03;1.30;;;1.20;;
2728;SDS011;1372;47.956;7.830;2022-12-20T04:46:32;0.80;;;0.80;;
2728;SDS011;1372;47.956;7.830;2022-12-20T04:49:02;1.40;;;1.30;;
2728;SDS011;1372;47.956;7.830;2022-12-20T04:51:31;1.43;;;1.20;;
2728;SDS011;1372;47.956;7.830;2022-12-20T04:54:00;1.20;;;1.03;;
2728;SDS011;1372;47.956;7.830;2022-12-20T04:56:30;1.10;;;1.10;;
2728;SDS011;1372;47.956;7.830;2022-12-20T04:58:58;0.93;;;0.93;;
2728;SDS011;1372;47.956;7.830;2022-12-20T05:01:28;0.90;;;0.90;;
2728;SDS011;1372;47.956;7.830;2022-12-20T05:03:56;1.00;;;0.83;;
2728;SDS011;1372;47.956;7.830;2022-12-20T05:06:26;0.80;;;0.80;;
2728;SDS011;1372;47.956;7.830;2022-12-20T05:08:55;0.87;;;0.83;;
2728;SDS011;1372;47.956;7.830;2022-12-20T05:11:23;0.80;;;0.80;;
2728;SDS011;1372;47.956;7.830;2022-12-20T05:13:52;1.37;;;1.27;;
2728;SDS011;1372;47.956;7.830;2022-12-20T05:16:20;1.37;;;1.10;;
2728;SDS011;1372;47.956;7.830;2022-12-20T05:18:51;0.80;;;0.80;;
2728;SDS011;1372;47.956;7.830;2022-12-20T05:21:20;1.30;;;1.03;;
2728;SDS011;1372;47.956;7.830;2022-12-20T05:24:08;1.07;;;0.90;;
2728;SDS011;1372;47.956;7.830;2022-12-20T05:27:09;0.90;;;0.80;;
2728;SDS011;1372;47.956;7.830;2022-12-20T05:29:37;1.17;;;0.93;;
2728;SDS011;1372;47.956;7.830;2022-12-20T05:32:09;2.50;;;0.97;;
2728;SDS011;1372;47.956;7.830;2022-12-20T05:34:38;1.53;;;1.43;;
2728;SDS011;1372;47.956;7.830;2022-12-20T05:37:06;9.23;;;5.60;;
2728;SDS011;1372;47.956;7.830;2022-12-20T05:39:39;11.67;;;5.77;;
2728;SDS011;1372;47.956;7.830;2022-12-20T05:42:08;6.73;;;4.20;;
2728;SDS011;1372;47.956;7.830;2022-12-20T05:44:36;3.13;;;2.00;;
2728;SDS011;1372;47.956;7.830;2022-12-20T05:47:05;1.63;;;1.30;;
2728;SDS011;1372;47.956;7.830;2022-12-20T05:49:33;2.13;;;1.47;;
2728;SDS011;1372;47.956;7.830;2022-12-20T05:52:02;2.73;;;2.37;;
2728;SDS011;1372;47.956;7.830;2022-12-20T05:54:32;2.10;;;1.90;;
2728;SDS011;1372;47.956;7.830;2022-12-20T05:57:02;2.07;;;1.40;;
2728;SDS011;1372;47.956;7.830;2022-12-20T05:59:31;2.50;;;1.50;;
2728;SDS011;1372;47.956;7.830;2022-12-20T06:02:01;1.73;;;1.33;;
2728;SDS011;1372;47.956;7.830;2022-12-20T06:04:30;4.30;;;2.83;;
2728;SDS011;1372;47.956;7.830;2022-12-20T06:06:59;4.87;;;2.50;;
2728;SDS011;1372;47.956;7.830;2022-12-20T06:09:28;3.80;;;2.60;;
2728;SDS011;1372;47.956;7.830;2022-12-20T06:11:57;2.93;;;2.70;;
2728;SDS011;1372;47.956;7.830;2022-12-20T06:14:28;4.13;;;3.67;;
2728;SDS011;1372;47.956;7.830;2022-12-20T06:16:57;5.13;;;3.33;;
2728;SDS011;1372;47.956;7.830;2022-12-20T06:19:26;3.57;;;3.27;;
2728;SDS011;1372;47.956;7.830;2022-12-20T06:21:55;3.80;;;3.50;;
2728;SDS011;1372;47.956;7.830;2022-12-20T06:24:24;4.30;;;3.60;;
2728;SDS011;1372;47.956;7.830;2022-12-20T06:26:52;3.67;;;3.37;;
2728;SDS011;1372;47.956;7.830;2022-12-20T06:29:21;2.67;;;2.47;;
2728;SDS011;1372;47.956;7.830;2022-12-20T06:31:54;3.80;;;3.03;;
2728;SDS011;1372;47.956;7.830;2022-12-20T06:34:23;2.37;;;2.17;;
2728;SDS011;1372;47.956;7.830;2022-12-20T06:36:54;2.90;;;1.70;;
2728;SDS011;1372;47.956;7.830;2022-12-20T06:39:23;5.73;;;1.70;;
2728;SDS011;1372;47.956;7.830;2022-12-20T06:41:54;2.23;;;2.03;;
2728;SDS011;1372;47.956;7.830;2022-12-20T06:44:23;2.30;;;2.13;;
2728;SDS011;1372;47.956;7.830;2022-12-20T06:46:56;2.03;;;1.90;;
2728;SDS011;1372;47.956;7.830;2022-12-20T06:49:27;2.17;;;2.00;;
2728;SDS011;1372;47.956;7.830;2022-12-20T06:51:55;1.47;;;1.40;;
2728;SDS011;1372;47.956;7.830;2022-12-20T06:54:25;1.57;;;1.47;;
2728;SDS011;1372;47.956;7.830;2022-12-20T06:56:56;2.20;;;1.40;;
2728;SDS011;1372;47.956;7.830;2022-12-20T06:59:25;1.77;;;1.67;;
2728;SDS011;1372;47.956;7.830;2022-12-20T07:01:53;2.10;;;1.90;;
2728;SDS011;1372;47.956;7.830;2022-12-20T07:04:24;2.00;;;1.63;;
2728;SDS011;1372;47.956;7.830;2022-12-20T07:06:53;3.53;;;2.10;;
2728;SDS011;1372;47.956;7.830;2022-12-20T07:09:22;3.03;;;2.73;;
2728;SDS011;1372;47.956;7.830;2022-12-20T07:11:52;3.30;;;3.00;;
2728;SDS011;1372;47.956;7.830;2022-12-20T07:14:21;2.17;;;1.97;;
2728;SDS011;1372;47.956;7.830;2022-12-20T07:16:50;3.43;;;2.10;;
2728;SDS011;1372;47.956;7.830;2022-12-20T07:19:20;1.30;;;1.20;;
2728;SDS011;1372;47.956;7.830;2022-12-20T07:21:49;10.13;;;1.87;;
2728;SDS011;1372;47.956;7.830;2022-12-20T07:24:18;1.20;;;1.17;;
2728;SDS011;1372;47.956;7.830;2022-12-20T07:26:48;2.80;;;2.60;;
2728;SDS011;1372;47.956;7.830;2022-12-20T07:29:16;3.00;;;2.80;;
2728;SDS011;1372;47.956;7.830;2022-12-20T07:31:45;18.60;;;9.00;;
2728;SDS011;1372;47.956;7.830;2022-12-20T07:34:13;84.43;;;29.97;;
2728;SDS011;1372;47.956;7.830;2022-12-20T07:36:45;64.03;;;24.90;;
2728;SDS011;1372;47.956;7.830;2022-12-20T07:39:14;60.77;;;22.80;;
2728;SDS011;1372;47.956;7.830;2022-12-20T07:41:43;54.07;;;22.00;;
2728;SDS011;1372;47.956;7.830;2022-12-20T07:44:11;69.80;;;28.10;;
2728;SDS011;1372;47.956;7.830;2022-12-20T07:46:40;61.57;;;26.47;;
2728;SDS011;1372;47.956;7.830;2022-12-20T07:49:08;44.17;;;20.80;;
2728;SDS011;1372;47.956;7.830;2022-12-20T07:51:40;42.03;;;20.87;;
2728;SDS011;1372;47.956;7.830;2022-12-20T07:54:14;69.97;;;36.80;;
2728;SDS011;1372;47.956;7.830;2022-12-20T07:56:50;54.60;;;31.80;;
2728;SDS011;1372;47.956;7.830;2022-12-20T07:59:26;66.67;;;43.73;;
2728;SDS011;1372;47.956;7.830;2022-12-20T08:01:58;44.70;;;29.47;;
2728;SDS011;1372;47.956;7.830;2022-12-20T08:04:30;46.00;;;29.37;;
2728;SDS011;1372;47.956;7.830;2022-12-20T08:07:02;29.80;;;19.13;;
2728;SDS011;1372;47.956;7.830;2022-12-20T08:09:33;41.00;;;20.50;;
2728;SDS011;1372;47.956;7.830;2022-12-20T08:12:07;60.47;;;29.27;;
2728;SDS011;1372;47.956;7.830;2022-12-20T08:14:40;84.40;;;37.47;;
2728;SDS011;1372;47.956;7.830;2022-12-20T08:17:09;102.67;;;40.13;;
2728;SDS011;1372;47.956;7.830;2022-12-20T08:19:38;300.80;;;112.67;;
2728;SDS011;1372;47.956;7.830;2022-12-20T08:22:08;175.73;;;74.30;;
2728;SDS011;1372;47.956;7.830;2022-12-20T08:24:36;69.37;;;32.93;;
2728;SDS011;1372;47.956;7.830;2022-12-20T08:27:05;64.30;;;34.57;;
2728;SDS011;1372;47.956;7.830;2022-12-20T08:29:33;89.70;;;42.13;;
2728;SDS011;1372;47.956;7.830;2022-12-20T08:32:02;45.80;;;27.93;;
2728;SDS011;1372;47.956;7.830;2022-12-20T08:34:31;22.70;;;16.00;;
2728;SDS011;1372;47.956;7.830;2022-12-20T08:37:00;19.10;;;12.60;;
2728;SDS011;1372;47.956;7.830;2022-12-20T08:39:34;20.47;;;12.33;;
2728;SDS011;1372;47.956;7.830;2022-12-20T08:42:03;10.53;;;8.00;;
2728;SDS011;1372;47.956;7.830;2022-12-20T08:44:32;13.33;;;7.83;;
2728;SDS011;1372;47.956;7.830;2022-12-20T08:47:01;17.70;;;10.60;;
2728;SDS011;1372;47.956;7.830;2022-12-20T08:49:32;15.03;;;9.77;;
2728;SDS011;1372;47.956;7.830;2022-12-20T08:52:00;17.83;;;9.83;;
2728;SDS011;1372;47.956;7.830;2022-12-20T08:54:31;13.23;;;9.70;;
2728;SDS011;1372;47.956;7.830;2022-12-20T08:57:01;15.70;;;10.10;;
2728;SDS011;1372;47.956;7.830;2022-12-20T08:59:30;21.70;;;12.27;;
2728;SDS011;1372;47.956;7.830;2022-12-20T09:01:59;24.87;;;13.90;;
2728;SDS011;1372;47.956;7.830;2022-12-20T09:04:27;22.57;;;12.47;;
2728;SDS011;1372;47.956;7.830;2022-12-20T09:06:56;17.33;;;13.70;;
2728;SDS011;1372;47.956;7.830;2022-12-20T09:09:25;14.80;;;12.57;;
2728;SDS011;1372;47.956;7.830;2022-12-20T09:11:53;18.20;;;12.20;;
2728;SDS011;1372;47.956;7.830;2022-12-20T09:14:24;29.57;;;16.37;;
2728;SDS011;1372;47.956;7.830;2022-12-20T09:16:55;25.00;;;14.73;;
2728;SDS011;1372;47.956;7.830;2022-12-20T09:19:23;23.20;;;15.30;;
2728;SDS011;1372;47.956;7.830;2022-12-20T09:21:52;26.33;;;16.90;;
2728;SDS011;1372;47.956;7.830;2022-12-20T09:24:21;19.90;;;13.70;;
2728;SDS011;1372;47.956;7.830;2022-12-20T09:26:49;23.30;;;15.80;;
2728;SDS011;1372;47.956;7.830;2022-12-20T09:29:18;17.63;;;10.67;;
2728;SDS011;1372;47.956;7.830;2022-12-20T09:31:55;9.30;;;7.97;;
2728;SDS011;1372;47.956;7.830;2022-12-20T09:34:24;7.87;;;7.00;;
2728;SDS011;1372;47.956;7.830;2022-12-20T09:36:55;7.40;;;5.93;;
2728;SDS011;1372;47.956;7.830;2022-12-20T09:39:24;11.20;;;9.80;;
2728;SDS011;1372;47.956;7.830;2022-12-20T09:41:57;7.80;;;7.10;;
2728;SDS011;1372;47.956;7.830;2022-12-20T09:44:30;5.30;;;4.80;;
2728;SDS011;1372;47.956;7.830;2022-12-20T09:47:05;12.07;;;7.50;;
2728;SDS011;1372;47.956;7.830;2022-12-20T09:49:42;14.50;;;7.40;;
2728;SDS011;1372;47.956;7.830;2022-12-20T09:52:17;8.07;;;6.10;;
2728;SDS011;1372;47.956;7.830;2022-12-20T09:55:07;8.23;;;6.37;;
2728;SDS011;1372;47.956;7.830;2022-12-20T09:58:02;6.90;;;6.20;;
2728;SDS011;1372;47.956;7.830;2022-12-20T10:01:03;9.40;;;5.07;;
2728;SDS011;1372;47.956;7.830;2022-12-20T10:03:50;11.10;;;6.60;;
2728;SDS011;1372;47.956;7.830;2022-12-20T10:06:21;8.53;;;6.87;;
2728;SDS011;1372;47.956;7.830;2022-12-20T10:09:04;8.90;;;6.40;;
2728;SDS011;1372;47.956;7.830;2022-12-20T10:12:08;9.80;;;6.80;;
2728;SDS011;1372;47.956;7.830;2022-12-20T10:14:58;16.40;;;11.43;;
2728;SDS011;1372;47.956;7.830;2022-12-20T10:17:49;20.27;;;13.40;;
2728;SDS011;1372;47.956;7.830;2022-12-20T10:20:49;9.23;;;7.10;;
2728;SDS011;1372;47.956;7.830;2022-12-20T10:23:32;7.33;;;6.10;;
2728;SDS011;1372;47.956;7.830;2022-12-20T10:26:12;5.63;;;3.97;;
2728;SDS011;1372;47.956;7.830;2022-12-20T10:28:43;6.60;;;5.20;;
2728;SDS011;1372;47.956;7.830;2022-12-20T10:31:22;8.03;;;4.17;;
2728;SDS011;1372;47.956;7.830;2022-12-20T10:33:52;3.53;;;3.07;;
2728;SDS011;1372;47.956;7.830;2022-12-20T10:36:26;3.30;;;2.83;;
2728;SDS011;1372;47.956;7.830;2022-12-20T10:38:59;7.00;;;3.83;;
2728;SDS011;1372;47.956;7.830;2022-12-20T10:41:32;5.30;;;3.80;;
2728;SDS011;1372;47.956;7.830;2022-12-20T10:44:22;6.03;;;5.40;;
2728;SDS011;1372;47.956;7.830;2022-12-20T10:47:00;20.20;;;11.67;;
2728;SDS011;1372;47.956;7.830;2022-12-20T10:49:31;48.43;;;21.57;;
2728;SDS011;1372;47.956;7.830;2022-12-20T10:52:10;42.13;;;22.07;;
2728;SDS011;1372;47.956;7.830;2022-12-20T10:54:43;21.50;;;10.20;;
2728;SDS011;1372;47.956;7.830;2022-12-20T10:57:17;22.80;;;12.37;;
2728;SDS011;1372;47.956;7.830;2022-12-20T10:59:57;19.63;;;13.20;;
2728;SDS011;1372;47.956;7.830;2022-12-20T11:02:38;22.77;;;13.93;;
2728;SDS011;1372;47.956;7.830;2022-12-20T11:05:22;23.23;;;16.67;;
2728;SDS011;1372;47.956;7.830;2022-12-20T11:07:56;10.27;;;8.00;;
2728;SDS011;1372;47.956;7.830;2022-12-20T11:13:54;5.20;;;4.00;;
2728;SDS011;1372;47.956;7.830;2022-12-20T11:16:42;3.23;;;2.40;;
2728;SDS011;1372;47.956;7.830;2022-12-20T11:19:27;2.10;;;1.90;;
2728;SDS011;1372;47.956;7.830;2022-12-20T11:22:16;2.60;;;2.40;;
2728;SDS011;1372;47.956;7.830;2022-12-20T11:28:40;14.73;;;13.20;;
2728;SDS011;1372;47.956;7.830;2022-12-20T11:31:50;9.67;;;8.37;;
2728;SDS011;1372;47.956;7.830;2022-12-20T11:34:35;7.97;;;6.37;;
2728;SDS011;1372;47.956;7.830;2022-12-20T11:37:19;7.03;;;5.00;;
2728;SDS011;1372;47.956;7.830;2022-12-20T11:39:58;4.87;;;4.13;;
2728;SDS011;1372;47.956;7.830;2022-12-20T11:42:44;3.50;;;3.20;;
2728;SDS011;1372;47.956;7.830;2022-12-20T11:45:27;2.70;;;2.43;;
2728;SDS011;1372;47.956;7.830;2022-12-20T11:48:08;3.70;;;2.50;;
2728;SDS011;1372;47.956;7.830;2022-12-20T11:51:10;3.67;;;3.30;;
2728;SDS011;1372;47.956;7.830;2022-12-20T11:53:53;35.83;;;20.20;;
2728;SDS011;1372;47.956;7.830;2022-12-20T11:56:29;21.60;;;11.93;;
2728;SDS011;1372;47.956;7.830;2022-12-20T11:59:13;5.77;;;5.07;;
2728;SDS011;1372;47.956;7.830;2022-12-20T12:01:50;15.20;;;10.60;;
2728;SDS011;1372;47.956;7.830;2022-12-20T12:04:29;16.30;;;11.53;;
2728;SDS011;1372;47.956;7.830;2022-12-20T12:07:03;9.43;;;7.20;;
2728;SDS011;1372;47.956;7.830;2022-12-20T12:09:41;7.73;;;6.93;;
2728;SDS011;1372;47.956;7.830;2022-12-20T12:12:21;7.37;;;6.50;;
2728;SDS011;1372;47.956;7.830;2022-12-20T12:14:58;8.90;;;6.20;;
2728;SDS011;1372;47.956;7.830;2022-12-20T12:17:32;9.10;;;7.63;;
2728;SDS011;1372;47.956;7.830;2022-12-20T12:20:13;7.53;;;6.43;;
2728;SDS011;1372;47.956;7.830;2022-12-20T12:22:53;7.37;;;5.07;;
2728;SDS011;1372;47.956;7.830;2022-12-20T12:25:30;5.83;;;5.10;;
2728;SDS011;1372;47.956;7.830;2022-12-20T12:27:58;6.03;;;5.30;;
2728;SDS011;1372;47.956;7.830;2022-12-20T12:30:35;8.40;;;5.90;;
2728;SDS011;1372;47.956;7.830;2022-12-20T12:33:10;5.03;;;4.00;;
2728;SDS011;1372;47.956;7.830;2022-12-20T12:44:46;3.70;;;3.17;;
2728;SDS011;1372;47.956;7.830;2022-12-20T12:47:24;4.40;;;3.23;;
2728;SDS011;1372;47.956;7.830;2022-12-20T12:50:07;4.17;;;3.00;;
2728;SDS011;1372;47.956;7.830;2022-12-20T12:52:47;3.17;;;2.43;;
2728;SDS011;1372;47.956;7.830;2022-12-20T12:55:39;2.73;;;2.10;;
2728;SDS011;1372;47.956;7.830;2022-12-20T12:58:14;2.00;;;1.80;;
2728;SDS011;1372;47.956;7.830;2022-12-20T13:01:04;1.77;;;1.53;;
2728;SDS011;1372;47.956;7.830;2022-12-20T13:06:53;3.90;;;3.50;;
2728;SDS011;1372;47.956;7.830;2022-12-20T13:09:40;4.70;;;3.90;;
2728;SDS011;1372;47.956;7.830;2022-12-20T13:18:33;3.13;;;2.37;;
2728;SDS011;1372;47.956;7.830;2022-12-20T13:27:29;2.13;;;2.00;;
2728;SDS011;1372;47.956;7.830;2022-12-20T13:32:57;2.10;;;2.00;;
2728;SDS011;1372;47.956;7.830;2022-12-20T13:45:00;2.50;;;1.87;;
2728;SDS011;1372;47.956;7.830;2022-12-20T13:47:33;1.73;;;1.57;;
2728;SDS011;1372;47.956;7.830;2022-12-20T13:50:22;1.80;;;1.70;;
2728;SDS011;1372;47.956;7.830;2022-12-20T13:53:01;1.87;;;1.70;;
2728;SDS011;1372;47.956;7.830;2022-12-20T13:55:34;2.47;;;2.27;;
2728;SDS011;1372;47.956;7.830;2022-12-20T13:58:05;2.37;;;2.10;;
2728;SDS011;1372;47.956;7.830;2022-12-20T14:00:40;2.50;;;1.90;;
2728;SDS011;1372;47.956;7.830;2022-12-20T14:03:21;1.53;;;1.47;;
2728;SDS011;1372;47.956;7.830;2022-12-20T14:05:55;2.60;;;1.77;;
2728;SDS011;1372;47.956;7.830;2022-12-20T14:08:29;2.47;;;2.13;;
2728;SDS011;1372;47.956;7.830;2022-12-20T14:11:11;2.30;;;2.13;;
2728;SDS011;1372;47.956;7.830;2022-12-20T14:13:49;3.13;;;1.80;;
2728;SDS011;1372;47.956;7.830;2022-12-20T14:16:21;2.27;;;1.83;;
2728;SDS011;1372;47.956;7.830;2022-12-20T14:18:59;2.03;;;1.93;;
2728;SDS011;1372;47.956;7.830;2022-12-20T14:21:28;2.10;;;1.90;;
2728;SDS011;1372;47.956;7.830;2022-12-20T14:23:58;2.93;;;1.97;;
2728;SDS011;1372;47.956;7.830;2022-12-20T14:26:29;1.90;;;1.70;;
2728;SDS011;1372;47.956;7.830;2022-12-20T14:29:08;3.47;;;1.93;;
2728;SDS011;1372;47.956;7.830;2022-12-20T14:31:39;1.73;;;1.63;;
2728;SDS011;1372;47.956;7.830;2022-12-20T14:34:11;2.10;;;2.00;;
2728;SDS011;1372;47.956;7.830;2022-12-20T14:39:53;3.33;;;2.50;;
2728;SDS011;1372;47.956;7.830;2022-12-20T14:42:28;3.87;;;2.53;;
2728;SDS011;1372;47.956;7.830;2022-12-20T14:45:04;7.23;;;3.80;;
2728;SDS011;1372;47.956;7.830;2022-12-20T14:47:48;7.63;;;4.70;;
2728;SDS011;1372;47.956;7.830;2022-12-20T14:50:23;4.87;;;4.37;;
2728;SDS011;1372;47.956;7.830;2022-12-20T14:52:58;5.70;;;5.07;;
2728;SDS011;1372;47.956;7.830;2022-12-20T14:55:31;6.33;;;4.60;;
2728;SDS011;1372;47.956;7.830;2022-12-20T14:58:21;5.47;;;4.97;;
2728;SDS011;1372;47.956;7.830;2022-12-20T15:00:56;5.50;;;5.00;;
2728;SDS011;1372;47.956;7.830;2022-12-20T15:03:27;6.57;;;5.23;;
2728;SDS011;1372;47.956;7.830;2022-12-20T15:05:57;23.37;;;18.33;;
2728;SDS011;1372;47.956;7.830;2022-12-20T15:08:27;38.40;;;26.30;;
2728;SDS011;1372;47.956;7.830;2022-12-20T15:10:59;17.27;;;13.07;;
2728;SDS011;1372;47.956;7.830;2022-12-20T15:13:34;8.57;;;7.10;;
2728;SDS011;1372;47.956;7.830;2022-12-20T15:16:04;8.20;;;6.73;;
2728;SDS011;1372;47.956;7.830;2022-12-20T15:18:41;9.30;;;6.10;;
2728;SDS011;1372;47.956;7.830;2022-12-20T15:21:13;5.17;;;4.67;;
2728;SDS011;1372;47.956;7.830;2022-12-20T15:23:46;5.47;;;4.47;;
2728;SDS011;1372;47.956;7.830;2022-12-20T15:26:19;4.83;;;4.27;;
2728;SDS011;1372;47.956;7.830;2022-12-20T15:28:51;3.67;;;3.33;;
2728;SDS011;1372;47.956;7.830;2022-12-20T15:31:21;3.67;;;3.30;;
2728;SDS011;1372;47.956;7.830;2022-12-20T15:33:58;3.57;;;2.80;;
2728;SDS011;1372;47.956;7.830;2022-12-20T15:36:28;4.80;;;4.07;;
2728;SDS011;1372;47.956;7.830;2022-12-20T15:38:57;4.53;;;4.13;;
2728;SDS011;1372;47.956;7.830;2022-12-20T15:41:39;7.37;;;6.00;;
2728;SDS011;1372;47.956;7.830;2022-12-20T15:44:12;6.83;;;5.60;;
2728;SDS011;1372;47.956;7.830;2022-12-20T15:46:44;8.47;;;6.30;;
2728;SDS011;1372;47.956;7.830;2022-12-20T15:49:13;11.03;;;7.20;;
2728;SDS011;1372;47.956;7.830;2022-12-20T15:51:44;8.03;;;5.57;;
2728;SDS011;1372;47.956;7.830;2022-12-20T15:54:17;9.10;;;6.23;;
2728;SDS011;1372;47.956;7.830;2022-12-20T15:56:53;7.90;;;6.30;;
2728;SDS011;1372;47.956;7.830;2022-12-20T15:59:24;12.63;;;8.73;;
2728;SDS011;1372;47.956;7.830;2022-12-20T16:02:17;6.90;;;4.93;;
2728;SDS011;1372;47.956;7.830;2022-12-20T16:04:49;11.10;;;8.13;;
2728;SDS011;1372;47.956;7.830;2022-12-20T16:07:18;10.20;;;6.60;;
2728;SDS011;1372;47.956;7.830;2022-12-20T16:09:47;11.87;;;8.47;;
2728;SDS011;1372;47.956;7.830;2022-12-20T16:12:17;16.60;;;10.03;;
2728;SDS011;1372;47.956;7.830;2022-12-20T16:14:52;15.07;;;8.67;;
2728;SDS011;1372;47.956;7.830;2022-12-20T16:17:21;12.70;;;8.33;;
2728;SDS011;1372;47.956;7.830;2022-12-20T16:19:49;9.03;;;6.50;;
2728;SDS011;1372;47.956;7.830;2022-12-20T16:22:19;11.33;;;7.60;;
2728;SDS011;1372;47.956;7.830;2022-12-20T16:24:50;6.90;;;4.30;;
2728;SDS011;1372;47.956;7.830;2022-12-20T16:27:18;5.03;;;4.17;;
2728;SDS011;1372;47.956;7.830;2022-12-20T16:29:47;5.03;;;3.70;;
2728;SDS011;1372;47.956;7.830;2022-12-20T16:32:18;4.93;;;4.00;;
2728;SDS011;1372;47.956;7.830;2022-12-20T16:34:48;21.20;;;12.63;;
2728;SDS011;1372;47.956;7.830;2022-12-20T16:37:17;22.83;;;16.00;;